Jefferson City, Missouri
Current Conditions -  °F | °C
As of 10:53 PM on Saturday 20 Dec 2014 (Local Time) from KJEF Reporting Station
Overcast Overcast  
Wind Chill: 38°   Ceiling: 2100
Heat Index: 42°   Visibility: 10mi
Dew Point: 34°   Wind: 6mph
Humidity: 73%   Direction: 190°S
Pressure: 30.22"   Gusts: NA
Location:  38.58°N, 92.18°W
Report Text: KJEF 210453Z AUTO 19005KT 10SM OVC021 06/01 A3022 RMK AO2 SLP227 T00560011
Loading
Personal Weather Stations






























Interactive Weather Map New forecast layout! Learn more

10-Day Weather Forecast

Advertisements
Track Severe Weather on mobile